createdAt,value
2018-08-16T00:00:34.274Z,0
2018-08-16T00:01:34.946Z,0
2018-08-16T00:02:35.624Z,0
2018-08-16T00:03:36.301Z,0
2018-08-16T00:04:36.975Z,0
2018-08-16T00:05:37.656Z,0
2018-08-16T00:06:38.332Z,0
2018-08-16T00:07:39.006Z,0
2018-08-16T00:08:39.683Z,0
2018-08-16T00:09:40.361Z,0
2018-08-16T00:10:41.037Z,0
2018-08-16T00:11:41.717Z,0
2018-08-16T00:12:42.437Z,0
2018-08-16T00:13:43.115Z,0
2018-08-16T00:14:43.793Z,0
2018-08-16T00:15:44.468Z,0
2018-08-16T00:16:45.145Z,0
2018-08-16T00:17:45.821Z,0
2018-08-16T00:18:46.498Z,0
2018-08-16T00:19:47.174Z,0
2018-08-16T00:20:47.854Z,0
2018-08-16T00:21:48.528Z,0
2018-08-16T00:22:49.205Z,0
2018-08-16T00:23:49.881Z,0
2018-08-16T00:24:50.561Z,0
2018-08-16T00:25:51.237Z,0
2018-08-16T00:26:51.914Z,0
2018-08-16T00:27:52.590Z,0
2018-08-16T00:28:53.269Z,0
2018-08-16T00:29:53.947Z,0
2018-08-16T00:30:54.671Z,0
2018-08-16T00:31:55.427Z,0
2018-08-16T00:32:56.066Z,0
2018-08-16T00:33:56.743Z,0
2018-08-16T00:34:57.419Z,0
2018-08-16T00:35:58.097Z,0
2018-08-16T00:36:58.774Z,0
2018-08-16T00:37:59.498Z,0
2018-08-16T00:39:00.176Z,0
2018-08-16T00:40:00.853Z,0
2018-08-16T00:41:01.530Z,0
2018-08-16T00:42:02.253Z,0
2018-08-16T00:43:02.930Z,0
2018-08-16T00:44:03.607Z,0
2018-08-16T00:45:04.284Z,0
2018-08-16T00:46:04.961Z,0
2018-08-16T00:47:05.638Z,0
2018-08-16T00:48:06.315Z,0
2018-08-16T00:49:06.992Z,0
2018-08-16T00:50:07.669Z,0
2018-08-16T00:51:08.351Z,0
2018-08-16T00:52:09.023Z,0
2018-08-16T00:53:09.702Z,0
2018-08-16T00:54:10.374Z,0
2018-08-16T00:55:11.050Z,0
2018-08-16T00:56:11.727Z,0
2018-08-16T00:57:12.402Z,0
2018-08-16T00:58:13.084Z,0
2018-08-16T00:59:13.756Z,0
2018-08-16T01:00:14.432Z,0
2018-08-16T01:01:15.141Z,0
2018-08-16T01:02:15.832Z,0
2018-08-16T01:03:16.509Z,0
2018-08-16T01:04:17.182Z,0
2018-08-16T01:05:17.862Z,0
2018-08-16T01:06:18.536Z,0
2018-08-16T01:07:19.214Z,0
2018-08-16T01:08:19.891Z,0
2018-08-16T01:09:20.572Z,0
2018-08-16T01:10:21.291Z,0
2018-08-16T01:11:21.965Z,0
2018-08-16T01:12:22.645Z,0
2018-08-16T01:13:23.319Z,0
2018-08-16T01:14:23.994Z,0
2018-08-16T01:15:24.682Z,0
2018-08-16T01:16:25.346Z,0
2018-08-16T01:17:26.026Z,0
2018-08-16T01:18:26.697Z,0
2018-08-16T01:19:27.418Z,0
2018-08-16T01:20:28.096Z,0
2018-08-16T01:21:28.771Z,0
2018-08-16T01:22:29.491Z,0
2018-08-16T01:23:30.164Z,0
2018-08-16T01:24:30.841Z,0
2018-08-16T01:25:31.517Z,0
2018-08-16T01:26:32.192Z,0
2018-08-16T01:27:32.869Z,0
2018-08-16T01:28:33.544Z,0
2018-08-16T01:29:34.219Z,0
2018-08-16T01:30:34.894Z,0
2018-08-16T01:31:35.572Z,0
2018-08-16T01:32:36.243Z,0
2018-08-16T01:33:36.921Z,0
2018-08-16T01:34:37.596Z,0
2018-08-16T01:35:38.393Z,0
2018-08-16T01:36:38.985Z,0
2018-08-16T01:37:39.662Z,0
2018-08-16T01:38:40.336Z,0
2018-08-16T01:39:41.056Z,0
2018-08-16T01:40:41.729Z,0
2018-08-16T01:41:42.405Z,0
2018-08-16T01:42:43.082Z,0
2018-08-16T01:43:43.757Z,0
2018-08-16T01:44:44.434Z,0
2018-08-16T01:45:45.112Z,0
2018-08-16T01:46:45.782Z,0
2018-08-16T01:47:46.459Z,0
2018-08-16T01:48:47.133Z,0
2018-08-16T01:49:47.809Z,0
2018-08-16T01:50:48.485Z,0
2018-08-16T01:51:49.161Z,0
2018-08-16T01:52:49.837Z,0
2018-08-16T01:53:50.510Z,0
2018-08-16T01:54:51.187Z,0
2018-08-16T01:55:51.861Z,0
2018-08-16T01:56:52.542Z,0
2018-08-16T01:57:53.209Z,0
2018-08-16T01:58:53.929Z,0
2018-08-16T01:59:54.601Z,0
2018-08-16T02:00:55.278Z,0
2018-08-16T02:01:55.952Z,0
2018-08-16T02:02:56.626Z,0
2018-08-16T02:03:57.303Z,0
2018-08-16T02:04:57.977Z,0
2018-08-16T02:05:58.652Z,0
2018-08-16T02:06:59.327Z,0
2018-08-16T02:08:00.014Z,0
2018-08-16T02:09:00.724Z,0
2018-08-16T02:10:01.400Z,0
2018-08-16T02:11:02.073Z,0
2018-08-16T02:12:02.749Z,0
2018-08-16T02:13:03.424Z,0
2018-08-16T02:14:04.100Z,0
2018-08-16T02:15:04.775Z,0
2018-08-16T02:16:05.450Z,0
2018-08-16T02:17:06.124Z,0
2018-08-16T02:18:06.801Z,0
2018-08-16T02:19:07.476Z,0
2018-08-16T02:20:08.150Z,0
2018-08-16T02:21:08.825Z,0
2018-08-16T02:22:09.513Z,0
2018-08-16T02:23:10.223Z,0
2018-08-16T02:24:10.899Z,0
2018-08-16T02:25:11.574Z,0
2018-08-16T02:26:12.249Z,0
2018-08-16T02:27:12.927Z,0
2018-08-16T02:28:13.600Z,0
2018-08-16T02:29:14.275Z,0
2018-08-16T02:30:14.951Z,0
2018-08-16T02:31:15.626Z,0
2018-08-16T02:32:16.302Z,0
2018-08-16T02:33:17.020Z,0
2018-08-16T02:34:17.695Z,0
2018-08-16T02:35:18.370Z,0
2018-08-16T02:36:19.049Z,0
2018-08-16T02:37:19.729Z,0
2018-08-16T02:38:20.395Z,0
2018-08-16T02:39:21.070Z,0
2018-08-16T02:40:21.747Z,0
2018-08-16T02:41:22.460Z,0
2018-08-16T02:42:23.135Z,0
2018-08-16T02:43:23.810Z,0
2018-08-16T02:44:24.484Z,0
2018-08-16T02:45:25.159Z,0
2018-08-16T02:46:25.834Z,0
2018-08-16T02:47:26.511Z,0
2018-08-16T02:48:27.185Z,0
2018-08-16T02:49:27.862Z,0
2018-08-16T02:50:28.535Z,0
2018-08-16T02:51:29.210Z,0
2018-08-16T02:52:29.885Z,0
2018-08-16T02:53:30.558Z,0
2018-08-16T02:54:31.236Z,0
2018-08-16T02:55:31.955Z,0
2018-08-16T02:56:32.629Z,0
2018-08-16T02:57:33.302Z,0
2018-08-16T02:58:33.979Z,0
2018-08-16T02:59:34.652Z,0
2018-08-16T03:00:35.327Z,0
2018-08-16T03:01:36.003Z,0
2018-08-16T03:02:36.677Z,0
2018-08-16T03:03:37.353Z,0
2018-08-16T03:04:38.032Z,0
2018-08-16T03:05:38.751Z,0
2018-08-16T03:06:39.471Z,0
2018-08-16T03:07:40.144Z,0
2018-08-16T03:08:40.827Z,0
2018-08-16T03:09:41.494Z,0
2018-08-16T03:10:42.171Z,0
2018-08-16T03:11:42.845Z,0
2018-08-16T03:12:43.570Z,0
2018-08-16T03:13:44.243Z,0
2018-08-16T03:14:44.921Z,0
2018-08-16T03:15:45.598Z,0
2018-08-16T03:16:46.316Z,0
2018-08-16T03:17:46.991Z,0
2018-08-16T03:18:47.667Z,0
2018-08-16T03:19:48.342Z,0
2018-08-16T03:20:49.016Z,0
2018-08-16T03:21:49.690Z,0
2018-08-16T03:22:50.365Z,0
2018-08-16T03:23:51.039Z,0
2018-08-16T03:24:51.713Z,0
2018-08-16T03:25:52.387Z,0
2018-08-16T03:26:53.064Z,0
2018-08-16T03:27:53.738Z,0
2018-08-16T03:28:54.413Z,0
2018-08-16T03:29:55.088Z,0
2018-08-16T03:30:55.766Z,0
2018-08-16T03:31:56.485Z,0
2018-08-16T03:32:57.162Z,0
2018-08-16T03:33:57.837Z,0
2018-08-16T03:34:58.513Z,0
2018-08-16T03:35:59.187Z,0
2018-08-16T03:36:59.862Z,0
2018-08-16T03:38:00.536Z,0
2018-08-16T03:39:01.213Z,0
2018-08-16T03:40:01.886Z,0
2018-08-16T03:41:02.597Z,0
2018-08-16T03:42:03.303Z,0
2018-08-16T03:43:04.010Z,0
2018-08-16T03:44:04.718Z,0
2018-08-16T03:45:05.397Z,0
2018-08-16T03:46:06.069Z,0
2018-08-16T03:47:06.796Z,0
2018-08-16T03:48:07.500Z,0
2018-08-16T03:49:08.186Z,0
2018-08-16T03:50:08.862Z,0
2018-08-16T03:51:09.538Z,0
2018-08-16T03:52:10.213Z,0
2018-08-16T03:53:10.888Z,0
2018-08-16T03:54:11.567Z,0
2018-08-16T03:55:12.243Z,0
2018-08-16T03:56:12.918Z,0
2018-08-16T03:57:13.593Z,0
2018-08-16T03:58:14.271Z,0
2018-08-16T03:59:14.945Z,0
2018-08-16T04:00:15.622Z,0
2018-08-16T04:01:16.300Z,0
2018-08-16T04:02:16.974Z,0
2018-08-16T04:03:17.697Z,0
2018-08-16T04:04:18.375Z,0
2018-08-16T04:05:19.052Z,0
2018-08-16T04:06:19.729Z,5
2018-08-16T04:07:20.404Z,5
2018-08-16T04:08:21.082Z,5
2018-08-16T04:09:21.757Z,5
2018-08-16T04:10:22.435Z,5
2018-08-16T04:11:23.111Z,5
2018-08-16T04:12:23.796Z,5
2018-08-16T04:13:24.467Z,5
2018-08-16T04:14:25.143Z,5
2018-08-16T04:15:25.826Z,5
2018-08-16T04:16:26.541Z,11
2018-08-16T04:17:27.221Z,11
2018-08-16T04:18:27.899Z,11
2018-08-16T04:19:28.578Z,11
2018-08-16T04:20:29.257Z,11
2018-08-16T04:21:29.935Z,11
2018-08-16T04:22:30.614Z,11
2018-08-16T04:23:31.343Z,11
2018-08-16T04:24:31.970Z,11
2018-08-16T04:25:32.651Z,16
2018-08-16T04:26:33.371Z,16
2018-08-16T04:27:34.050Z,16
2018-08-16T04:28:34.727Z,16
2018-08-16T04:29:35.405Z,16
2018-08-16T04:30:36.083Z,16
2018-08-16T04:31:36.765Z,22
2018-08-16T04:32:37.445Z,22
2018-08-16T04:33:38.118Z,22
2018-08-16T04:34:38.809Z,22
2018-08-16T04:35:39.476Z,22
2018-08-16T04:36:40.154Z,22
2018-08-16T04:37:40.837Z,22
2018-08-16T04:38:41.513Z,28
2018-08-16T04:39:42.191Z,28
2018-08-16T04:40:42.871Z,28
2018-08-16T04:41:43.673Z,28
2018-08-16T04:42:44.274Z,28
2018-08-16T04:43:44.996Z,28
2018-08-16T04:44:45.675Z,33
2018-08-16T04:45:46.357Z,33
2018-08-16T04:46:47.035Z,33
2018-08-16T04:47:47.713Z,33
2018-08-16T04:48:48.392Z,33
2018-08-16T04:49:49.073Z,33
2018-08-16T04:50:49.752Z,39
2018-08-16T04:51:50.431Z,39
2018-08-16T04:52:51.109Z,39
2018-08-16T04:53:51.786Z,39
2018-08-16T04:54:52.466Z,39
2018-08-16T04:55:53.144Z,45
2018-08-16T04:56:53.859Z,45
2018-08-16T04:57:54.502Z,45
2018-08-16T04:58:55.180Z,45
2018-08-16T04:59:55.862Z,45
2018-08-16T05:00:56.539Z,50
2018-08-16T05:01:57.217Z,50
2018-08-16T05:02:57.898Z,50
2018-08-16T05:03:58.576Z,50
2018-08-16T05:04:59.254Z,50
2018-08-16T05:05:59.933Z,50
2018-08-16T05:07:00.611Z,56
2018-08-16T05:08:01.292Z,56
2018-08-16T05:09:01.972Z,56
2018-08-16T05:10:02.651Z,56
2018-08-16T05:11:03.388Z,56
2018-08-16T05:12:04.009Z,56
2018-08-16T05:13:04.689Z,61
2018-08-16T05:14:05.369Z,61
2018-08-16T05:15:06.092Z,61
2018-08-16T05:16:06.772Z,61
2018-08-16T05:17:07.458Z,61
2018-08-16T05:18:08.129Z,67
2018-08-16T05:19:08.810Z,67
2018-08-16T05:20:09.489Z,67
2018-08-16T05:21:10.166Z,67
2018-08-16T05:22:10.847Z,67
2018-08-16T05:23:11.526Z,73
2018-08-16T05:24:12.204Z,73
2018-08-16T05:25:12.884Z,73
2018-08-16T05:26:13.562Z,73
2018-08-16T05:27:14.289Z,73
2018-08-16T05:28:14.967Z,73
2018-08-16T05:29:15.647Z,78
2018-08-16T05:30:16.327Z,78
2018-08-16T05:31:17.008Z,78
2018-08-16T05:32:17.688Z,78
2018-08-16T05:33:18.367Z,78
2018-08-16T05:34:19.046Z,84
2018-08-16T05:35:19.726Z,84
2018-08-16T05:36:20.406Z,84
2018-08-16T05:37:21.089Z,84
2018-08-16T05:38:21.765Z,84
2018-08-16T05:39:22.445Z,90
2018-08-16T05:40:23.124Z,90
2018-08-16T05:41:23.804Z,90
2018-08-16T05:42:24.482Z,90
2018-08-16T05:43:25.188Z,90
2018-08-16T05:44:25.841Z,95
2018-08-16T05:45:26.520Z,95
2018-08-16T05:46:27.206Z,95
2018-08-16T05:47:27.926Z,95
2018-08-16T05:48:28.605Z,95
2018-08-16T05:49:29.283Z,95
2018-08-16T05:50:29.963Z,101
2018-08-16T05:51:30.646Z,101
2018-08-16T05:52:31.327Z,101
2018-08-16T05:53:32.007Z,101
2018-08-16T05:54:32.689Z,101
2018-08-16T05:55:33.369Z,106
2018-08-16T05:56:34.098Z,106
2018-08-16T05:57:34.773Z,106
2018-08-16T05:58:35.454Z,106
2018-08-16T05:59:36.136Z,106
2018-08-16T06:00:36.816Z,106
2018-08-16T06:01:37.496Z,112
2018-08-16T06:02:38.180Z,112
2018-08-16T06:03:38.859Z,112
2018-08-16T06:04:39.540Z,112
2018-08-16T06:05:40.223Z,112
2018-08-16T06:06:40.903Z,112
2018-08-16T06:07:41.715Z,118
2018-08-16T06:08:42.262Z,118
2018-08-16T06:09:42.943Z,118
2018-08-16T06:10:43.624Z,118
2018-08-16T06:11:44.305Z,118
2018-08-16T06:12:44.986Z,118
2018-08-16T06:13:45.714Z,123
2018-08-16T06:14:46.395Z,123
2018-08-16T06:15:47.076Z,123
2018-08-16T06:16:47.758Z,123
2018-08-16T06:17:48.439Z,123
2018-08-16T06:18:49.119Z,123
2018-08-16T06:19:49.799Z,123
2018-08-16T06:20:50.481Z,129
2018-08-16T06:21:51.163Z,129
2018-08-16T06:22:51.844Z,129
2018-08-16T06:23:52.576Z,129
2018-08-16T06:24:53.208Z,129
2018-08-16T06:25:53.891Z,129
2018-08-16T06:26:54.570Z,129
2018-08-16T06:27:55.253Z,135
2018-08-16T06:28:55.936Z,135
2018-08-16T06:29:56.619Z,135
2018-08-16T06:30:57.342Z,135
2018-08-16T06:31:57.982Z,140
2018-08-16T06:32:58.664Z,140
2018-08-16T06:33:59.347Z,146
2018-08-16T06:35:00.030Z,151
2018-08-16T06:36:00.710Z,163
2018-08-16T06:37:01.391Z,196
2018-08-16T06:38:02.075Z,337
2018-08-16T06:39:02.843Z,466
2018-08-16T06:40:03.438Z,472
2018-08-16T06:41:04.123Z,461
2018-08-16T06:42:04.804Z,461
2018-08-16T06:43:05.487Z,444
2018-08-16T06:44:06.172Z,444
2018-08-16T06:45:06.854Z,444
2018-08-16T06:46:07.545Z,444
2018-08-16T06:47:08.268Z,438
2018-08-16T06:48:08.952Z,438
2018-08-16T06:49:09.637Z,438
2018-08-16T06:50:10.322Z,444
2018-08-16T06:51:11.009Z,433
2018-08-16T06:52:11.694Z,433
2018-08-16T06:53:12.380Z,433
2018-08-16T06:54:13.066Z,433
2018-08-16T06:55:13.750Z,433
2018-08-16T06:56:14.486Z,438
2018-08-16T06:57:15.172Z,438
2018-08-16T06:58:15.917Z,450
2018-08-16T06:59:16.593Z,444
2018-08-16T07:00:17.330Z,444
2018-08-16T07:01:18.013Z,450
2018-08-16T07:02:18.700Z,455
2018-08-16T07:03:19.390Z,461
2018-08-16T07:04:20.124Z,466
2018-08-16T07:05:20.813Z,472
2018-08-16T07:06:21.501Z,489
2018-08-16T07:07:22.189Z,511
2018-08-16T07:08:22.879Z,618
2018-08-16T07:09:23.569Z,675
2018-08-16T07:10:24.258Z,697
2018-08-16T07:11:24.947Z,720
2018-08-16T07:12:25.653Z,725
2018-08-16T07:13:26.368Z,742
2018-08-16T07:14:27.058Z,748
2018-08-16T07:15:27.748Z,781
2018-08-16T07:16:28.440Z,776
2018-08-16T07:17:29.130Z,781
2018-08-16T07:18:29.820Z,798
2018-08-16T07:19:30.510Z,765
2018-08-16T07:20:31.199Z,714
2018-08-16T07:21:31.891Z,691
2018-08-16T07:22:32.582Z,630
2018-08-16T07:23:33.300Z,489
2018-08-16T07:24:34.096Z,410
2018-08-16T07:25:34.698Z,376
2018-08-16T07:26:35.391Z,365
2018-08-16T07:27:36.084Z,360
2018-08-16T07:28:36.777Z,354
2018-08-16T07:29:37.467Z,348
2018-08-16T07:30:38.157Z,348
2018-08-16T07:31:38.849Z,343
2018-08-16T07:32:39.545Z,337
2018-08-16T07:33:40.236Z,343
2018-08-16T07:34:40.923Z,331
2018-08-16T07:35:41.616Z,331
2018-08-16T07:36:42.313Z,326
2018-08-16T07:37:43.002Z,326
2018-08-16T07:38:43.693Z,326
2018-08-16T07:39:44.384Z,331
2018-08-16T07:40:45.078Z,326
2018-08-16T07:41:45.771Z,326
2018-08-16T07:42:46.462Z,326
2018-08-16T07:43:47.156Z,326
2018-08-16T07:44:47.846Z,326
2018-08-16T07:45:48.674Z,331
2018-08-16T07:46:49.230Z,331
2018-08-16T07:47:49.922Z,331
2018-08-16T07:48:50.616Z,331
2018-08-16T07:49:51.307Z,326
2018-08-16T07:50:52.021Z,326
2018-08-16T07:51:52.755Z,326
2018-08-16T07:52:53.390Z,326
2018-08-16T07:53:54.080Z,326
2018-08-16T07:54:54.771Z,326
2018-08-16T07:55:55.463Z,326
2018-08-16T07:56:56.200Z,320
2018-08-16T07:57:56.846Z,320
2018-08-16T07:58:57.536Z,320
2018-08-16T07:59:58.227Z,315
2018-08-16T08:00:58.919Z,309
2018-08-16T08:01:59.611Z,309
2018-08-16T08:03:00.303Z,315
2018-08-16T08:04:00.994Z,315
2018-08-16T08:05:01.686Z,309
2018-08-16T08:06:02.446Z,309
2018-08-16T08:07:03.112Z,309
2018-08-16T08:08:03.805Z,303
2018-08-16T08:09:04.643Z,303
2018-08-16T08:10:05.187Z,303
2018-08-16T08:11:05.879Z,303
2018-08-16T08:12:06.570Z,303
2018-08-16T08:13:07.260Z,303
2018-08-16T08:14:07.952Z,303
2018-08-16T08:15:08.644Z,303
2018-08-16T08:16:09.337Z,303
2018-08-16T08:17:10.032Z,303
2018-08-16T08:18:10.719Z,303
2018-08-16T08:19:11.411Z,303
2018-08-16T08:20:12.105Z,303
2018-08-16T08:21:12.840Z,298
2018-08-16T08:22:13.531Z,298
2018-08-16T08:23:14.267Z,298
2018-08-16T08:24:14.961Z,298
2018-08-16T08:25:15.687Z,298
2018-08-16T08:26:16.380Z,298
2018-08-16T08:27:17.072Z,298
2018-08-16T08:28:17.764Z,298
2018-08-16T08:29:18.454Z,298
2018-08-16T08:30:19.147Z,298
2018-08-16T08:31:19.838Z,292
2018-08-16T08:32:20.532Z,292
2018-08-16T08:33:21.222Z,298
2018-08-16T08:34:21.913Z,298
2018-08-16T08:35:22.611Z,298
2018-08-16T08:36:23.299Z,298
2018-08-16T08:37:23.990Z,298
2018-08-16T08:38:24.697Z,303
2018-08-16T08:39:25.381Z,292
2018-08-16T08:40:26.065Z,292
2018-08-16T08:41:26.755Z,292
2018-08-16T08:42:27.447Z,286
2018-08-16T08:43:28.187Z,286
2018-08-16T08:44:28.878Z,281
2018-08-16T08:45:29.571Z,281
2018-08-16T08:46:30.263Z,275
2018-08-16T08:47:30.955Z,275
2018-08-16T08:48:31.674Z,270
2018-08-16T08:49:32.426Z,270
2018-08-16T08:50:33.116Z,264
2018-08-16T08:51:33.810Z,258
2018-08-16T08:52:34.504Z,258
2018-08-16T08:53:35.252Z,253
2018-08-16T08:54:35.933Z,253
2018-08-16T08:55:36.670Z,253
2018-08-16T08:56:37.362Z,247
2018-08-16T08:57:38.055Z,247
2018-08-16T08:58:38.746Z,241
2018-08-16T08:59:39.462Z,241
2018-08-16T09:00:40.176Z,241
2018-08-16T09:01:40.913Z,241
2018-08-16T09:02:41.606Z,236
2018-08-16T09:03:42.293Z,236
2018-08-16T09:04:42.984Z,236
2018-08-16T09:05:43.675Z,236
2018-08-16T09:06:44.380Z,236
2018-08-16T09:07:45.106Z,230
2018-08-16T09:08:45.839Z,230
2018-08-16T09:09:46.535Z,225
2018-08-16T09:10:47.224Z,225
2018-08-16T09:11:47.914Z,225
2018-08-16T09:12:48.959Z,225
2018-08-16T09:13:49.590Z,219
2018-08-16T09:14:50.284Z,219
2018-08-16T09:15:51.003Z,219
2018-08-16T09:16:51.667Z,219
2018-08-16T09:17:52.359Z,219
2018-08-16T09:18:53.052Z,219
2018-08-16T09:19:53.742Z,213
2018-08-16T09:20:54.433Z,213
2018-08-16T09:21:55.128Z,213
2018-08-16T09:22:55.862Z,213
2018-08-16T09:23:56.569Z,213
2018-08-16T09:24:57.293Z,213
2018-08-16T09:25:57.985Z,213
2018-08-16T09:26:58.678Z,213
2018-08-16T09:27:59.367Z,213
2018-08-16T09:29:00.066Z,213
2018-08-16T09:30:00.750Z,213
2018-08-16T09:31:01.450Z,213
2018-08-16T09:32:02.184Z,213
2018-08-16T09:33:02.876Z,213
2018-08-16T09:34:03.568Z,213
2018-08-16T09:35:04.258Z,213
2018-08-16T09:36:04.950Z,213
2018-08-16T09:37:05.666Z,213
2018-08-16T09:38:06.381Z,213
2018-08-16T09:39:07.071Z,213
2018-08-16T09:40:07.763Z,213
2018-08-16T09:41:08.453Z,208
2018-08-16T09:42:09.147Z,208
2018-08-16T09:43:09.837Z,208
2018-08-16T09:44:10.528Z,208
2018-08-16T09:45:11.237Z,208
2018-08-16T09:46:11.912Z,208
2018-08-16T09:47:12.606Z,208
2018-08-16T09:48:13.296Z,208
2018-08-16T09:49:13.991Z,202
2018-08-16T09:50:14.680Z,202
2018-08-16T09:51:15.409Z,202
2018-08-16T09:52:16.062Z,208
2018-08-16T09:53:16.757Z,202
2018-08-16T09:54:17.448Z,202
2018-08-16T09:55:18.138Z,202
2018-08-16T09:56:18.830Z,196
2018-08-16T09:57:19.523Z,196
2018-08-16T09:58:20.214Z,196
2018-08-16T09:59:20.950Z,196
2018-08-16T10:00:21.635Z,202
2018-08-16T10:01:22.324Z,196
2018-08-16T10:02:23.014Z,196
2018-08-16T10:03:23.706Z,196
2018-08-16T10:04:24.397Z,196
2018-08-16T10:05:25.137Z,196
2018-08-16T10:06:25.828Z,191
2018-08-16T10:07:26.521Z,191
2018-08-16T10:08:27.213Z,191
2018-08-16T10:09:27.904Z,196
2018-08-16T10:10:28.594Z,191
2018-08-16T10:11:29.285Z,191
2018-08-16T10:12:30.030Z,185
2018-08-16T10:13:30.761Z,185
2018-08-16T10:14:31.413Z,185
2018-08-16T10:15:32.105Z,185
2018-08-16T10:16:32.840Z,185
2018-08-16T10:17:33.531Z,180
2018-08-16T10:18:34.222Z,180
2018-08-16T10:19:34.912Z,180
2018-08-16T10:20:35.607Z,174
2018-08-16T10:21:36.295Z,174
2018-08-16T10:22:36.987Z,174
2018-08-16T10:23:37.675Z,174
2018-08-16T10:24:38.367Z,174
2018-08-16T10:25:39.059Z,174
2018-08-16T10:26:39.751Z,174
2018-08-16T10:27:40.442Z,174
2018-08-16T10:28:41.133Z,174
2018-08-16T10:29:41.824Z,174
2018-08-16T10:30:42.514Z,168
2018-08-16T10:31:43.207Z,168
2018-08-16T10:32:43.896Z,168
2018-08-16T10:33:44.588Z,168
2018-08-16T10:34:45.280Z,168
2018-08-16T10:35:45.971Z,168
2018-08-16T10:36:46.713Z,168
2018-08-16T10:37:47.401Z,168
2018-08-16T10:38:48.092Z,168
2018-08-16T10:39:48.783Z,168
2018-08-16T10:40:49.473Z,168
2018-08-16T10:41:50.165Z,168
2018-08-16T10:42:50.854Z,168
2018-08-16T10:43:51.588Z,163
2018-08-16T10:44:52.285Z,163
2018-08-16T10:45:52.966Z,163
2018-08-16T10:46:53.656Z,163
2018-08-16T10:47:54.346Z,163
2018-08-16T10:48:55.037Z,163
2018-08-16T10:49:55.726Z,163
2018-08-16T10:50:56.417Z,163
2018-08-16T10:51:57.106Z,163
2018-08-16T10:52:57.795Z,163
2018-08-16T10:53:58.514Z,157
2018-08-16T10:54:59.221Z,157
2018-08-16T10:55:59.909Z,157
2018-08-16T10:57:00.597Z,157
2018-08-16T10:58:01.287Z,157
2018-08-16T10:59:01.977Z,157
2018-08-16T11:00:02.714Z,157
2018-08-16T11:01:03.353Z,157
2018-08-16T11:02:04.043Z,157
2018-08-16T11:03:04.732Z,157
2018-08-16T11:04:05.423Z,151
2018-08-16T11:05:06.108Z,151
2018-08-16T11:06:06.799Z,151
2018-08-16T11:07:07.485Z,151
2018-08-16T11:08:08.174Z,151
2018-08-16T11:09:08.866Z,151
2018-08-16T11:10:09.555Z,151
2018-08-16T11:11:10.246Z,151
2018-08-16T11:12:10.931Z,151
2018-08-16T11:13:11.619Z,151
2018-08-16T11:14:12.310Z,151
2018-08-16T11:15:12.998Z,151
2018-08-16T11:16:13.686Z,151
2018-08-16T11:17:14.374Z,151
2018-08-16T11:18:15.067Z,151
2018-08-16T11:19:15.751Z,151
2018-08-16T11:20:16.438Z,151
2018-08-16T11:21:17.127Z,151
2018-08-16T11:22:17.815Z,151
2018-08-16T11:23:18.502Z,151
2018-08-16T11:24:19.191Z,157
2018-08-16T11:25:19.878Z,151
2018-08-16T11:26:20.565Z,151
2018-08-16T11:27:21.253Z,151
2018-08-16T11:28:21.942Z,146
2018-08-16T11:29:22.700Z,146
2018-08-16T11:30:23.356Z,146
2018-08-16T11:31:24.044Z,146
2018-08-16T11:32:24.730Z,146
2018-08-16T11:33:25.424Z,146
2018-08-16T11:34:26.150Z,146
2018-08-16T11:35:26.843Z,146
2018-08-16T11:36:27.530Z,146
2018-08-16T11:37:28.218Z,146
2018-08-16T11:38:28.905Z,146
2018-08-16T11:39:29.593Z,146
2018-08-16T11:40:30.301Z,146
2018-08-16T11:41:30.970Z,135
2018-08-16T11:42:31.658Z,140
2018-08-16T11:43:32.346Z,140
2018-08-16T11:44:33.040Z,140
2018-08-16T11:45:33.769Z,140
2018-08-16T11:46:34.528Z,140
2018-08-16T11:47:35.146Z,140
2018-08-16T11:48:35.834Z,140
2018-08-16T11:49:36.523Z,140
2018-08-16T11:50:37.212Z,140
2018-08-16T11:51:37.900Z,140
2018-08-16T11:52:38.589Z,140
2018-08-16T11:53:39.282Z,140
2018-08-16T11:54:39.966Z,135
2018-08-16T11:55:40.667Z,135
2018-08-16T11:56:41.389Z,135
2018-08-16T11:57:42.081Z,135
2018-08-16T11:58:42.825Z,135
2018-08-16T11:59:43.455Z,135
2018-08-16T12:00:44.142Z,135
2018-08-16T12:01:44.832Z,135
2018-08-16T12:02:45.569Z,135
2018-08-16T12:03:46.247Z,135
2018-08-16T12:04:46.934Z,135
2018-08-16T12:05:47.624Z,135
2018-08-16T12:06:48.355Z,135
2018-08-16T12:07:49.048Z,135
2018-08-16T12:08:49.731Z,135
2018-08-16T12:09:50.448Z,135
2018-08-16T12:10:51.151Z,135
2018-08-16T12:11:51.841Z,135
2018-08-16T12:12:52.529Z,135
2018-08-16T12:13:53.219Z,135
2018-08-16T12:14:53.951Z,135
2018-08-16T12:15:54.638Z,129
2018-08-16T12:16:55.327Z,129
2018-08-16T12:17:56.014Z,129
2018-08-16T12:18:56.703Z,129
2018-08-16T12:19:57.390Z,129
2018-08-16T12:20:58.147Z,129
2018-08-16T12:21:58.766Z,129
2018-08-16T12:22:59.501Z,129
2018-08-16T12:24:00.190Z,129
2018-08-16T12:25:00.916Z,129
2018-08-16T12:26:01.619Z,129
2018-08-16T12:27:02.351Z,129
2018-08-16T12:28:03.043Z,129
2018-08-16T12:29:03.771Z,129
2018-08-16T12:30:04.437Z,129
2018-08-16T12:31:05.150Z,129
2018-08-16T12:32:05.884Z,129
2018-08-16T12:33:06.571Z,129
2018-08-16T12:34:07.260Z,129
2018-08-16T12:35:07.991Z,129
2018-08-16T12:36:08.681Z,129
2018-08-16T12:37:09.368Z,129
2018-08-16T12:38:10.057Z,129
2018-08-16T12:39:10.746Z,129
2018-08-16T12:40:11.435Z,129
2018-08-16T12:41:12.180Z,129
2018-08-16T12:42:12.882Z,129
2018-08-16T12:43:13.575Z,129
2018-08-16T12:44:14.261Z,129
2018-08-16T12:45:14.950Z,129
2018-08-16T12:46:15.701Z,129
2018-08-16T12:47:16.379Z,129
2018-08-16T12:48:17.015Z,129
2018-08-16T12:49:17.705Z,129
2018-08-16T12:50:18.439Z,129
2018-08-16T12:51:19.128Z,123
2018-08-16T12:52:19.815Z,123
2018-08-16T12:53:20.549Z,123
2018-08-16T12:54:21.263Z,129
2018-08-16T12:55:21.975Z,129
2018-08-16T12:56:22.661Z,129
2018-08-16T12:57:23.346Z,129
2018-08-16T12:58:24.036Z,129
2018-08-16T12:59:24.723Z,129
2018-08-16T13:00:25.411Z,129
2018-08-16T13:01:26.101Z,123
2018-08-16T13:02:26.789Z,123
2018-08-16T13:03:27.480Z,123
2018-08-16T13:04:28.220Z,123
2018-08-16T13:05:28.950Z,123
2018-08-16T13:06:29.636Z,123
2018-08-16T13:07:30.326Z,123
2018-08-16T13:08:31.014Z,123
2018-08-16T13:09:31.701Z,123
2018-08-16T13:10:32.389Z,123
2018-08-16T13:11:33.078Z,123
2018-08-16T13:12:33.766Z,123
2018-08-16T13:13:34.453Z,129
2018-08-16T13:14:35.142Z,129
2018-08-16T13:15:35.831Z,129
2018-08-16T13:16:36.543Z,129
2018-08-16T13:17:37.251Z,135
2018-08-16T13:18:37.940Z,123
2018-08-16T13:19:38.628Z,123
2018-08-16T13:20:39.316Z,123
2018-08-16T13:21:40.002Z,123
2018-08-16T13:22:40.714Z,123
2018-08-16T13:23:41.509Z,123
2018-08-16T13:24:42.116Z,123
2018-08-16T13:25:42.806Z,129
2018-08-16T13:26:43.494Z,129
2018-08-16T13:27:44.272Z,129
2018-08-16T13:28:44.869Z,129
2018-08-16T13:29:45.557Z,129
2018-08-16T13:30:46.248Z,129
2018-08-16T13:31:46.933Z,129
2018-08-16T13:32:47.632Z,129
2018-08-16T13:33:48.358Z,129
2018-08-16T13:34:49.046Z,129
2018-08-16T13:35:49.738Z,129
2018-08-16T13:36:50.425Z,129
2018-08-16T13:37:51.112Z,123
2018-08-16T13:38:51.823Z,123
2018-08-16T13:39:52.536Z,123
2018-08-16T13:40:53.224Z,123
2018-08-16T13:41:53.913Z,123
2018-08-16T13:42:54.602Z,123
2018-08-16T13:43:55.292Z,123
2018-08-16T13:44:56.008Z,123
2018-08-16T13:45:56.716Z,123
2018-08-16T13:46:57.450Z,123
2018-08-16T13:47:58.140Z,123
2018-08-16T13:48:58.849Z,123
2018-08-16T13:49:59.560Z,123
2018-08-16T13:51:00.290Z,123
2018-08-16T13:52:00.980Z,123
2018-08-16T13:53:01.670Z,123
2018-08-16T13:54:02.364Z,123
2018-08-16T13:55:03.146Z,123
2018-08-16T13:56:03.782Z,123
2018-08-16T13:57:04.471Z,123
2018-08-16T13:58:05.160Z,123
2018-08-16T13:59:05.853Z,123
2018-08-16T14:00:06.590Z,123
2018-08-16T14:01:07.272Z,123
2018-08-16T14:02:07.962Z,123
2018-08-16T14:03:08.650Z,123
2018-08-16T14:04:09.339Z,123
2018-08-16T14:05:10.045Z,123
2018-08-16T14:06:10.768Z,123
2018-08-16T14:07:11.484Z,123
2018-08-16T14:08:12.188Z,123
2018-08-16T14:09:12.875Z,123
2018-08-16T14:10:13.565Z,123
2018-08-16T14:11:14.255Z,123
2018-08-16T14:12:14.970Z,123
2018-08-16T14:13:15.714Z,123
2018-08-16T14:14:16.366Z,123
2018-08-16T14:15:17.057Z,123
2018-08-16T14:16:17.745Z,123